sensor_id;sensor_type;location;lat;lon;timestamp;pressure;altitude;pressure_sealevel;temperature;humidity
44385;BME280;30101;32.778;34.994;2022-07-04T00:01:53;96792.97;;;24.07;76.66
44385;BME280;30101;32.778;34.994;2022-07-04T00:06:57;96798.28;;;24.04;76.73
44385;BME280;30101;32.778;34.994;2022-07-04T00:12:01;96802.47;;;24.01;76.99
44385;BME280;30101;32.778;34.994;2022-07-04T00:17:04;96802.94;;;24.03;76.78
44385;BME280;30101;32.778;34.994;2022-07-04T00:22:08;96799.56;;;24.06;77.29
44385;BME280;30101;32.778;34.994;2022-07-04T00:27:12;96797.97;;;24.05;76.99
44385;BME280;30101;32.778;34.994;2022-07-04T00:32:16;96804.72;;;24.08;77.08
44385;BME280;30101;32.778;34.994;2022-07-04T00:37:19;96802.78;;;24.08;76.93
44385;BME280;30101;32.778;34.994;2022-07-04T00:42:23;96811.28;;;24.07;77.37
44385;BME280;30101;32.778;34.994;2022-07-04T00:47:26;96803.09;;;24.07;77.49
44385;BME280;30101;32.778;34.994;2022-07-04T00:52:30;96799.91;;;24.05;77.32
44385;BME280;30101;32.778;34.994;2022-07-04T00:57:34;96796.53;;;24.08;77.31
44385;BME280;30101;32.778;34.994;2022-07-04T01:02:38;96802.78;;;24.08;77.63
44385;BME280;30101;32.778;34.994;2022-07-04T01:07:42;96800.38;;;24.07;77.52
44385;BME280;30101;32.778;34.994;2022-07-04T01:12:46;96803.91;;;24.07;77.58
44385;BME280;30101;32.778;34.994;2022-07-04T01:17:52;96801.34;;;24.02;77.51
44385;BME280;30101;32.778;34.994;2022-07-04T01:22:56;96811.47;;;24.02;77.76
44385;BME280;30101;32.778;34.994;2022-07-04T01:28:00;96806.63;;;23.99;77.82
44385;BME280;30101;32.778;34.994;2022-07-04T01:33:08;96801.66;;;23.92;77.78
44385;BME280;30101;32.778;34.994;2022-07-04T01:38:12;96811.75;;;23.91;77.90
44385;BME280;30101;32.778;34.994;2022-07-04T01:43:16;96813.22;;;23.89;77.86
44385;BME280;30101;32.778;34.994;2022-07-04T01:48:20;96805.50;;;23.82;78.00
44385;BME280;30101;32.778;34.994;2022-07-04T01:53:25;96806.13;;;23.79;78.08
44385;BME280;30101;32.778;34.994;2022-07-04T01:58:28;96799.06;;;23.78;78.21
44385;BME280;30101;32.778;34.994;2022-07-04T02:03:32;96817.84;;;23.80;78.03
44385;BME280;30101;32.778;34.994;2022-07-04T02:08:35;96817.69;;;23.76;78.32
44385;BME280;30101;32.778;34.994;2022-07-04T02:13:39;96818.47;;;23.77;78.42
44385;BME280;30101;32.778;34.994;2022-07-04T02:19:02;96813.97;;;23.81;78.28
44385;BME280;30101;32.778;34.994;2022-07-04T02:24:06;96818.63;;;23.80;78.42
44385;BME280;30101;32.778;34.994;2022-07-04T02:29:09;96824.59;;;23.82;78.48
44385;BME280;30101;32.778;34.994;2022-07-04T02:34:13;96812.06;;;23.81;78.40
44385;BME280;30101;32.778;34.994;2022-07-04T02:39:16;96817.84;;;23.80;78.46
44385;BME280;30101;32.778;34.994;2022-07-04T02:44:20;96818.63;;;23.80;78.41
44385;BME280;30101;32.778;34.994;2022-07-04T02:49:27;96823.28;;;23.80;78.27
44385;BME280;30101;32.778;34.994;2022-07-04T02:54:30;96822.97;;;23.81;78.69
44385;BME280;30101;32.778;34.994;2022-07-04T02:59:34;96827.00;;;23.84;78.73
44385;BME280;30101;32.778;34.994;2022-07-04T03:04:38;96821.34;;;23.80;78.47
44385;BME280;30101;32.778;34.994;2022-07-04T03:09:41;96831.94;;;23.82;78.83
44385;BME280;30101;32.778;34.994;2022-07-04T03:14:45;96835.16;;;23.84;78.79
44385;BME280;30101;32.778;34.994;2022-07-04T03:19:49;96844.94;;;23.93;78.54
44385;BME280;30101;32.778;34.994;2022-07-04T03:24:56;96852.97;;;23.99;78.67
44385;BME280;30101;32.778;34.994;2022-07-04T03:29:59;96845.59;;;23.99;78.42
44385;BME280;30101;32.778;34.994;2022-07-04T03:35:04;96855.22;;;24.05;78.21
44385;BME280;30101;32.778;34.994;2022-07-04T03:40:10;96863.91;;;24.16;78.39
44385;BME280;30101;32.778;34.994;2022-07-04T03:45:14;96858.59;;;24.19;78.39
44385;BME280;30101;32.778;34.994;2022-07-04T03:50:17;96861.34;;;24.19;77.93
44385;BME280;30101;32.778;34.994;2022-07-04T03:55:21;96861.34;;;24.19;78.23
44385;BME280;30101;32.778;34.994;2022-07-04T04:00:25;96866.97;;;24.23;78.19
44385;BME280;30101;32.778;34.994;2022-07-04T04:05:29;96869.69;;;24.23;78.38
44385;BME280;30101;32.778;34.994;2022-07-04T04:10:33;96862.00;;;24.25;77.85
44385;BME280;30101;32.778;34.994;2022-07-04T04:15:43;96865.22;;;24.44;77.93
44385;BME280;30101;32.778;34.994;2022-07-04T04:20:47;96867.31;;;24.56;77.65
44385;BME280;30101;32.778;34.994;2022-07-04T04:25:50;96875.00;;;24.63;77.13
44385;BME280;30101;32.778;34.994;2022-07-04T04:30:57;96870.22;;;24.77;77.42
44385;BME280;30101;32.778;34.994;2022-07-04T04:36:02;96882.72;;;24.95;76.68
44385;BME280;30101;32.778;34.994;2022-07-04T04:41:06;96882.84;;;25.08;76.84
44385;BME280;30101;32.778;34.994;2022-07-04T04:46:10;96876.38;;;25.29;75.91
44385;BME280;30101;32.778;34.994;2022-07-04T04:51:15;96870.50;;;25.48;75.76
44385;BME280;30101;32.778;34.994;2022-07-04T04:56:19;96872.03;;;25.67;75.32
44385;BME280;30101;32.778;34.994;2022-07-04T05:01:23;96877.91;;;25.86;75.01
44385;BME280;30101;32.778;34.994;2022-07-04T05:06:44;96873.00;;;26.00;74.71
44385;BME280;30101;32.778;34.994;2022-07-04T05:11:48;96873.94;;;26.04;74.39
44385;BME280;30101;32.778;34.994;2022-07-04T05:16:52;96877.28;;;26.10;74.24
44385;BME280;30101;32.778;34.994;2022-07-04T05:21:57;96870.03;;;26.89;73.25
44385;BME280;30101;32.778;34.994;2022-07-04T05:27:01;96866.34;;;29.52;67.61
44385;BME280;30101;32.778;34.994;2022-07-04T05:32:06;96870.84;;;31.89;62.31
44385;BME280;30101;32.778;34.994;2022-07-04T05:37:10;96864.13;;;33.92;57.98
44385;BME280;30101;32.778;34.994;2022-07-04T05:42:13;96861.22;;;35.27;54.44
44385;BME280;30101;32.778;34.994;2022-07-04T05:47:17;96869.59;;;36.24;52.55
44385;BME280;30101;32.778;34.994;2022-07-04T05:52:20;96868.97;;;37.00;50.73
44385;BME280;30101;32.778;34.994;2022-07-04T05:57:24;96873.81;;;37.55;48.58
44385;BME280;30101;32.778;34.994;2022-07-04T06:02:27;96873.03;;;36.78;49.64
44385;BME280;30101;32.778;34.994;2022-07-04T06:07:32;96876.38;;;34.46;53.04
44385;BME280;30101;32.778;34.994;2022-07-04T06:12:36;96877.94;;;33.41;54.69
44385;BME280;30101;32.778;34.994;2022-07-04T06:17:39;96875.59;;;33.09;54.96
44385;BME280;30101;32.778;34.994;2022-07-04T06:22:44;96872.19;;;31.76;56.98
44385;BME280;30101;32.778;34.994;2022-07-04T06:27:49;96877.22;;;31.05;57.78
44385;BME280;30101;32.778;34.994;2022-07-04T06:32:57;96878.44;;;30.50;58.46
44385;BME280;30101;32.778;34.994;2022-07-04T06:38:00;96879.75;;;30.37;57.84
44385;BME280;30101;32.778;34.994;2022-07-04T06:43:04;96885.69;;;30.39;57.70
44385;BME280;30101;32.778;34.994;2022-07-04T06:48:08;96871.53;;;32.99;51.93
44385;BME280;30101;32.778;34.994;2022-07-04T06:53:17;96875.97;;;35.60;46.60
44385;BME280;30101;32.778;34.994;2022-07-04T06:58:21;96873.00;;;36.88;44.32
44385;BME280;30101;32.778;34.994;2022-07-04T07:03:24;96884.88;;;36.96;44.48
44385;BME280;30101;32.778;34.994;2022-07-04T07:08:29;96882.69;;;36.12;46.28
44385;BME280;30101;32.778;34.994;2022-07-04T07:13:34;96893.97;;;34.86;48.96
44385;BME280;30101;32.778;34.994;2022-07-04T07:18:43;96886.72;;;33.98;51.71
44385;BME280;30101;32.778;34.994;2022-07-04T07:23:47;96893.38;;;33.08;52.90
44385;BME280;30101;32.778;34.994;2022-07-04T07:28:50;96904.72;;;32.13;54.46
44385;BME280;30101;32.778;34.994;2022-07-04T07:33:54;96893.41;;;31.95;54.93
44385;BME280;30101;32.778;34.994;2022-07-04T07:38:58;96902.59;;;32.03;55.03
44385;BME280;30101;32.778;34.994;2022-07-04T07:44:01;96907.50;;;32.13;54.60
44385;BME280;30101;32.778;34.994;2022-07-04T07:49:05;96902.88;;;31.94;54.54
44385;BME280;30101;32.778;34.994;2022-07-04T07:54:08;96901.25;;;31.93;54.80
44385;BME280;30101;32.778;34.994;2022-07-04T07:59:24;96900.22;;;32.01;54.56
44385;BME280;30101;32.778;34.994;2022-07-04T08:04:27;96900.47;;;32.19;53.99
44385;BME280;30101;32.778;34.994;2022-07-04T08:09:31;96904.44;;;32.21;53.63
44385;BME280;30101;32.778;34.994;2022-07-04T08:14:35;96917.16;;;32.26;53.67
44385;BME280;30101;32.778;34.994;2022-07-04T08:19:39;96916.41;;;32.29;53.52
44385;BME280;30101;32.778;34.994;2022-07-04T08:24:44;96905.47;;;32.36;53.54
44385;BME280;30101;32.778;34.994;2022-07-04T08:29:47;96903.41;;;32.56;53.36
44385;BME280;30101;32.778;34.994;2022-07-04T08:34:51;96902.88;;;32.77;52.89
44385;BME280;30101;32.778;34.994;2022-07-04T08:39:55;96902.41;;;32.71;53.09
44385;BME280;30101;32.778;34.994;2022-07-04T08:45:00;96911.78;;;32.63;52.87
44385;BME280;30101;32.778;34.994;2022-07-04T08:55:14;96900.94;;;32.51;53.01
44385;BME280;30101;32.778;34.994;2022-07-04T09:00:20;96896.88;;;32.41;53.24
44385;BME280;30101;32.778;34.994;2022-07-04T09:05:24;96897.72;;;32.45;52.67
44385;BME280;30101;32.778;34.994;2022-07-04T09:10:28;96900.47;;;32.45;52.73
44385;BME280;30101;32.778;34.994;2022-07-04T09:15:32;96900.25;;;32.58;52.50
44385;BME280;30101;32.778;34.994;2022-07-04T09:20:36;96898.13;;;32.47;52.28
44385;BME280;30101;32.778;34.994;2022-07-04T09:25:39;96892.75;;;32.32;52.38
44385;BME280;30101;32.778;34.994;2022-07-04T09:30:47;96897.03;;;32.26;51.87
44385;BME280;30101;32.778;34.994;2022-07-04T09:35:51;96893.47;;;32.25;52.22
44385;BME280;30101;32.778;34.994;2022-07-04T09:40:55;96898.22;;;32.28;51.95
44385;BME280;30101;32.778;34.994;2022-07-04T09:45:59;96908.38;;;32.20;52.08
44385;BME280;30101;32.778;34.994;2022-07-04T09:51:03;96901.53;;;32.11;52.40
44385;BME280;30101;32.778;34.994;2022-07-04T09:56:07;96896.38;;;32.09;52.16
44385;BME280;30101;32.778;34.994;2022-07-04T10:01:19;96897.13;;;32.06;52.45
44385;BME280;30101;32.778;34.994;2022-07-04T10:06:23;96896.53;;;31.71;52.99
44385;BME280;30101;32.778;34.994;2022-07-04T10:11:33;96884.78;;;31.51;52.96
44385;BME280;30101;32.778;34.994;2022-07-04T10:16:38;96891.19;;;31.58;52.94
44385;BME280;30101;32.778;34.994;2022-07-04T10:21:42;96877.78;;;31.57;52.89
44385;BME280;30101;32.778;34.994;2022-07-04T10:26:46;96891.63;;;31.60;52.77
44385;BME280;30101;32.778;34.994;2022-07-04T10:31:50;96872.97;;;31.54;52.76
44385;BME280;30101;32.778;34.994;2022-07-04T10:36:54;96880.03;;;31.51;52.52
44385;BME280;30101;32.778;34.994;2022-07-04T10:42:01;96888.38;;;31.55;52.64
44385;BME280;30101;32.778;34.994;2022-07-04T10:47:05;96877.22;;;31.48;53.00
44385;BME280;30101;32.778;34.994;2022-07-04T10:52:11;96883.28;;;31.34;52.98
44385;BME280;30101;32.778;34.994;2022-07-04T10:57:17;96886.34;;;31.29;53.33
44385;BME280;30101;32.778;34.994;2022-07-04T11:33:44;96896.94;;;30.49;54.04
44385;BME280;30101;32.778;34.994;2022-07-04T11:38:59;96889.81;;;30.48;54.49
44385;BME280;30101;32.778;34.994;2022-07-04T11:44:04;96879.00;;;30.40;54.42
44385;BME280;30101;32.778;34.994;2022-07-04T11:49:10;96886.03;;;30.18;54.76
44385;BME280;30101;32.778;34.994;2022-07-04T11:54:14;96888.69;;;29.98;54.78
44385;BME280;30101;32.778;34.994;2022-07-04T11:59:38;96891.63;;;29.90;55.02
44385;BME280;30101;32.778;34.994;2022-07-04T12:04:42;96882.94;;;29.72;55.03
44385;BME280;30101;32.778;34.994;2022-07-04T12:09:47;96884.97;;;29.75;55.13
44385;BME280;30101;32.778;34.994;2022-07-04T12:15:02;96883.38;;;29.74;55.66
44385;BME280;30101;32.778;34.994;2022-07-04T12:20:17;96874.59;;;29.52;55.87
44385;BME280;30101;32.778;34.994;2022-07-04T12:30:29;96874.81;;;29.32;56.47
44385;BME280;30101;32.778;34.994;2022-07-04T12:41:04;96875.69;;;29.20;57.07
44385;BME280;30101;32.778;34.994;2022-07-04T12:51:34;96867.78;;;29.02;57.40
44385;BME280;30101;32.778;34.994;2022-07-04T12:56:40;96866.78;;;28.95;57.73
44385;BME280;30101;32.778;34.994;2022-07-04T13:01:46;96871.13;;;28.96;58.06
44385;BME280;30101;32.778;34.994;2022-07-04T13:06:50;96868.59;;;28.91;57.90
44385;BME280;30101;32.778;34.994;2022-07-04T13:11:53;96867.78;;;28.74;58.75
44385;BME280;30101;32.778;34.994;2022-07-04T13:16:57;96857.47;;;28.71;58.43
44385;BME280;30101;32.778;34.994;2022-07-04T13:22:01;96852.94;;;28.63;59.04
44385;BME280;30101;32.778;34.994;2022-07-04T13:27:05;96842.78;;;28.52;59.27
44385;BME280;30101;32.778;34.994;2022-07-04T13:32:09;96851.03;;;28.52;59.19
44385;BME280;30101;32.778;34.994;2022-07-04T13:37:14;96850.72;;;28.41;59.50
44385;BME280;30101;32.778;34.994;2022-07-04T13:42:19;96851.19;;;28.43;59.53
44385;BME280;30101;32.778;34.994;2022-07-04T13:47:22;96842.84;;;28.39;59.47
44385;BME280;30101;32.778;34.994;2022-07-04T13:52:26;96843.53;;;28.36;59.60
44385;BME280;30101;32.778;34.994;2022-07-04T13:57:31;96844.09;;;28.42;59.80
44385;BME280;30101;32.778;34.994;2022-07-04T14:02:35;96840.78;;;28.36;60.58
44385;BME280;30101;32.778;34.994;2022-07-04T14:07:39;96841.84;;;28.32;60.08
44385;BME280;30101;32.778;34.994;2022-07-04T14:12:43;96846.53;;;28.19;60.26
44385;BME280;30101;32.778;34.994;2022-07-04T14:17:47;96835.00;;;28.01;60.83
44385;BME280;30101;32.778;34.994;2022-07-04T14:22:52;96845.88;;;27.98;61.00
44385;BME280;30101;32.778;34.994;2022-07-04T14:27:56;96848.28;;;27.87;61.45
44385;BME280;30101;32.778;34.994;2022-07-04T14:33:00;96842.47;;;27.76;61.82
44385;BME280;30101;32.778;34.994;2022-07-04T14:38:05;96844.31;;;27.72;62.02
44385;BME280;30101;32.778;34.994;2022-07-04T14:43:09;96846.09;;;27.68;62.01
44385;BME280;30101;32.778;34.994;2022-07-04T14:48:14;96852.63;;;27.76;62.06
44385;BME280;30101;32.778;34.994;2022-07-04T14:53:17;96845.31;;;27.67;62.36
44385;BME280;30101;32.778;34.994;2022-07-04T14:58:21;96846.19;;;27.59;62.75
44385;BME280;30101;32.778;34.994;2022-07-04T15:03:25;96848.63;;;27.49;62.90
44385;BME280;30101;32.778;34.994;2022-07-04T15:08:28;96848.38;;;27.41;62.99
44385;BME280;30101;32.778;34.994;2022-07-04T15:13:32;96851.34;;;27.36;63.09
44385;BME280;30101;32.778;34.994;2022-07-04T15:18:36;96866.19;;;27.35;63.25
44385;BME280;30101;32.778;34.994;2022-07-04T15:23:40;96860.13;;;27.30;63.55
44385;BME280;30101;32.778;34.994;2022-07-04T15:28:44;96852.38;;;27.32;63.60
44385;BME280;30101;32.778;34.994;2022-07-04T15:33:48;96857.75;;;27.28;63.49
44385;BME280;30101;32.778;34.994;2022-07-04T15:38:53;96854.97;;;27.16;64.03
44385;BME280;30101;32.778;34.994;2022-07-04T15:43:56;96864.88;;;27.08;64.19
44385;BME280;30101;32.778;34.994;2022-07-04T15:49:03;96863.75;;;27.09;64.29
44385;BME280;30101;32.778;34.994;2022-07-04T15:54:14;96858.16;;;27.06;64.24
44385;BME280;30101;32.778;34.994;2022-07-04T15:59:18;96859.88;;;26.89;64.52
44385;BME280;30101;32.778;34.994;2022-07-04T16:04:22;96860.06;;;26.72;65.15
44385;BME280;30101;32.778;34.994;2022-07-04T16:09:27;96857.06;;;26.65;65.19
44385;BME280;30101;32.778;34.994;2022-07-04T16:14:30;96860.34;;;26.58;65.41
44385;BME280;30101;32.778;34.994;2022-07-04T16:19:34;96862.16;;;26.54;65.70
44385;BME280;30101;32.778;34.994;2022-07-04T16:24:38;96854.00;;;26.46;66.05
44385;BME280;30101;32.778;34.994;2022-07-04T16:29:46;96865.19;;;26.41;66.07
44385;BME280;30101;32.778;34.994;2022-07-04T16:34:51;96856.88;;;26.28;66.18
44385;BME280;30101;32.778;34.994;2022-07-04T16:39:55;96854.97;;;26.20;66.31
44385;BME280;30101;32.778;34.994;2022-07-04T16:44:58;96855.41;;;26.10;66.50
44385;BME280;30101;32.778;34.994;2022-07-04T16:50:02;96863.00;;;26.04;67.17
44385;BME280;30101;32.778;34.994;2022-07-04T16:55:06;96859.50;;;25.95;67.13
44385;BME280;30101;32.778;34.994;2022-07-04T17:00:18;96870.50;;;25.87;67.44
44385;BME280;30101;32.778;34.994;2022-07-04T17:05:22;96874.09;;;25.78;67.80
44385;BME280;30101;32.778;34.994;2022-07-04T17:10:26;96872.50;;;25.77;68.03
44385;BME280;30101;32.778;34.994;2022-07-04T17:15:30;96870.88;;;25.76;68.17
44385;BME280;30101;32.778;34.994;2022-07-04T17:20:34;96875.22;;;25.77;68.28
44385;BME280;30101;32.778;34.994;2022-07-04T17:25:39;96879.75;;;25.73;68.31
44385;BME280;30101;32.778;34.994;2022-07-04T17:30:47;96873.00;;;25.71;68.37
44385;BME280;30101;32.778;34.994;2022-07-04T17:35:57;96884.56;;;25.68;68.69
44385;BME280;30101;32.778;34.994;2022-07-04T17:41:00;96899.84;;;25.69;68.67
44385;BME280;30101;32.778;34.994;2022-07-04T17:46:04;96898.91;;;25.65;68.72
44385;BME280;30101;32.778;34.994;2022-07-04T17:51:08;96898.41;;;25.63;69.06
44385;BME280;30101;32.778;34.994;2022-07-04T17:56:12;96903.94;;;25.54;69.17
44385;BME280;30101;32.778;34.994;2022-07-04T18:01:16;96902.31;;;25.53;69.36
44385;BME280;30101;32.778;34.994;2022-07-04T18:06:21;96911.34;;;25.53;69.46
44385;BME280;30101;32.778;34.994;2022-07-04T18:11:25;96928.69;;;25.49;70.16
44385;BME280;30101;32.778;34.994;2022-07-04T18:16:28;96918.09;;;25.47;69.96
44385;BME280;30101;32.778;34.994;2022-07-04T18:21:33;96923.41;;;25.44;70.17
44385;BME280;30101;32.778;34.994;2022-07-04T18:26:37;96932.75;;;25.43;70.19
44385;BME280;30101;32.778;34.994;2022-07-04T18:31:40;96924.25;;;25.36;70.38
44385;BME280;30101;32.778;34.994;2022-07-04T18:36:44;96930.50;;;25.36;70.51
44385;BME280;30101;32.778;34.994;2022-07-04T18:41:48;96935.66;;;25.38;70.73
44385;BME280;30101;32.778;34.994;2022-07-04T18:46:51;96942.72;;;25.39;70.96
44385;BME280;30101;32.778;34.994;2022-07-04T18:51:55;96940.19;;;25.34;70.86
44385;BME280;30101;32.778;34.994;2022-07-04T18:56:58;96938.41;;;25.29;70.78
44385;BME280;30101;32.778;34.994;2022-07-04T19:02:02;96944.50;;;25.26;71.04
44385;BME280;30101;32.778;34.994;2022-07-04T19:07:07;96943.72;;;25.25;70.98
44385;BME280;30101;32.778;34.994;2022-07-04T19:12:12;96950.78;;;25.26;71.07
44385;BME280;30101;32.778;34.994;2022-07-04T19:17:16;96948.03;;;25.26;71.36
44385;BME280;30101;32.778;34.994;2022-07-04T19:22:24;96941.16;;;25.20;71.40
44385;BME280;30101;32.778;34.994;2022-07-04T19:27:28;96938.28;;;25.17;71.06
44385;BME280;30101;32.778;34.994;2022-07-04T19:32:34;96938.28;;;25.17;71.62
44385;BME280;30101;32.778;34.994;2022-07-04T19:37:39;96941.47;;;25.19;71.48
44385;BME280;30101;32.778;34.994;2022-07-04T19:42:43;96944.69;;;25.12;71.73
44385;BME280;30101;32.778;34.994;2022-07-04T19:47:47;96952.44;;;25.10;71.93
44385;BME280;30101;32.778;34.994;2022-07-04T19:52:50;96960.47;;;25.07;72.05
44385;BME280;30101;32.778;34.994;2022-07-04T19:57:53;96953.53;;;25.00;72.12
44385;BME280;30101;32.778;34.994;2022-07-04T20:02:57;96939.56;;;24.93;72.25
44385;BME280;30101;32.778;34.994;2022-07-04T20:08:04;96938.13;;;24.87;72.59
44385;BME280;30101;32.778;34.994;2022-07-04T20:13:08;96948.25;;;24.87;72.79
44385;BME280;30101;32.778;34.994;2022-07-04T20:18:15;96945.84;;;24.85;72.72
44385;BME280;30101;32.778;34.994;2022-07-04T20:23:19;96939.06;;;24.83;73.00
44385;BME280;30101;32.778;34.994;2022-07-04T20:28:23;96944.22;;;24.84;73.31
44385;BME280;30101;32.778;34.994;2022-07-04T20:33:27;96944.53;;;24.83;73.19
44385;BME280;30101;32.778;34.994;2022-07-04T20:38:32;96942.47;;;24.80;73.51
44385;BME280;30101;32.778;34.994;2022-07-04T20:43:36;96934.75;;;24.73;73.67
44385;BME280;30101;32.778;34.994;2022-07-04T20:48:40;96928.31;;;24.69;73.54
44385;BME280;30101;32.778;34.994;2022-07-04T20:53:44;96936.03;;;24.67;73.54
44385;BME280;30101;32.778;34.994;2022-07-04T20:58:50;96930.41;;;24.63;73.95
44385;BME280;30101;32.778;34.994;2022-07-04T21:03:54;96923.22;;;24.59;74.21
44385;BME280;30101;32.778;34.994;2022-07-04T21:08:58;96928.81;;;24.54;74.11
44385;BME280;30101;32.778;34.994;2022-07-04T21:14:03;96927.22;;;24.53;74.46
44385;BME280;30101;32.778;34.994;2022-07-04T21:19:06;96926.25;;;24.48;74.38
44385;BME280;30101;32.778;34.994;2022-07-04T21:24:10;96919.50;;;24.46;74.24
44385;BME280;30101;32.778;34.994;2022-07-04T21:29:14;96919.66;;;24.41;74.83
44385;BME280;30101;32.778;34.994;2022-07-04T21:34:18;96919.19;;;24.39;74.83
44385;BME280;30101;32.778;34.994;2022-07-04T21:39:22;96916.75;;;24.37;74.96
44385;BME280;30101;32.778;34.994;2022-07-04T21:44:26;96914.97;;;24.33;74.93
44385;BME280;30101;32.778;34.994;2022-07-04T21:49:29;96910.16;;;24.30;75.12
44385;BME280;30101;32.778;34.994;2022-07-04T21:54:33;96909.97;;;24.26;75.41
44385;BME280;30101;32.778;34.994;2022-07-04T21:59:37;96909.16;;;24.26;75.47
44385;BME280;30101;32.778;34.994;2022-07-04T22:04:41;96906.28;;;24.22;75.68
44385;BME280;30101;32.778;34.994;2022-07-04T22:09:46;96905.97;;;24.23;75.67
44385;BME280;30101;32.778;34.994;2022-07-04T22:14:50;96902.75;;;24.21;75.82
44385;BME280;30101;32.778;34.994;2022-07-04T22:19:59;96901.44;;;24.19;75.73
44385;BME280;30101;32.778;34.994;2022-07-04T22:25:05;96902.25;;;24.19;75.78
44385;BME280;30101;32.778;34.994;2022-07-04T22:30:10;96902.09;;;24.16;76.15
44385;BME280;30101;32.778;34.994;2022-07-04T22:35:13;96904.03;;;24.15;76.05
44385;BME280;30101;32.778;34.994;2022-07-04T22:40:17;96898.91;;;24.14;76.35
44385;BME280;30101;32.778;34.994;2022-07-04T22:45:21;96903.22;;;24.15;76.32
44385;BME280;30101;32.778;34.994;2022-07-04T22:50:24;96892.78;;;24.08;76.48
44385;BME280;30101;32.778;34.994;2022-07-04T22:55:28;96902.25;;;24.11;76.41
44385;BME280;30101;32.778;34.994;2022-07-04T23:00:32;96902.25;;;24.11;76.78
44385;BME280;30101;32.778;34.994;2022-07-04T23:05:36;96899.34;;;24.07;76.66
44385;BME280;30101;32.778;34.994;2022-07-04T23:10:40;96900.47;;;24.06;76.71
44385;BME280;30101;32.778;34.994;2022-07-04T23:15:45;96894.53;;;24.04;76.96
44385;BME280;30101;32.778;34.994;2022-07-04T23:20:49;96892.47;;;24.01;76.85
44385;BME280;30101;32.778;34.994;2022-07-04T23:25:53;96888.44;;;23.99;76.86
44385;BME280;30101;32.778;34.994;2022-07-04T23:30:56;96894.53;;;23.95;77.23
44385;BME280;30101;32.778;34.994;2022-07-04T23:36:00;96875.59;;;23.90;77.12
44385;BME280;30101;32.778;34.994;2022-07-04T23:41:04;96880.88;;;23.87;77.23
44385;BME280;30101;32.778;34.994;2022-07-04T23:46:09;96876.72;;;23.89;76.92
44385;BME280;30101;32.778;34.994;2022-07-04T23:51:13;96890.34;;;23.89;77.40
44385;BME280;30101;32.778;34.994;2022-07-04T23:56:17;96874.94;;;23.85;77.18
